createdAt,value
2017-12-31T00:00:10.664Z,3.31
2017-12-31T00:02:38.120Z,3.22
2017-12-31T00:05:05.900Z,3.13
2017-12-31T00:07:33.356Z,3.01
2017-12-31T00:10:00.804Z,3.07
2017-12-31T00:12:29.199Z,3.24
2017-12-31T00:14:56.653Z,3.20
2017-12-31T00:17:24.100Z,3.06
2017-12-31T00:19:51.887Z,3.26
2017-12-31T00:22:19.750Z,3.15
2017-12-31T00:24:47.209Z,3.35
2017-12-31T00:27:15.196Z,3.44
2017-12-31T00:29:42.649Z,3.34
2017-12-31T00:32:10.102Z,3.47
2017-12-31T00:34:37.896Z,3.48
2017-12-31T00:37:05.353Z,3.51
2017-12-31T00:39:32.814Z,3.50
2017-12-31T00:42:00.563Z,3.38
2017-12-31T00:44:28.013Z,3.41
2017-12-31T00:46:55.473Z,3.46
2017-12-31T00:49:23.576Z,3.51
2017-12-31T00:51:51.029Z,3.55
2017-12-31T00:54:18.489Z,3.47
2017-12-31T00:56:46.561Z,3.52
2017-12-31T00:59:14.015Z,3.47
2017-12-31T01:01:41.468Z,3.40
2017-12-31T01:04:09.241Z,3.21
2017-12-31T01:06:36.697Z,3.35
2017-12-31T01:09:04.150Z,3.21
2017-12-31T01:11:31.734Z,3.43
2017-12-31T01:13:59.190Z,3.48
2017-12-31T01:16:26.652Z,3.48
2017-12-31T01:18:54.314Z,3.31
2017-12-31T01:21:21.773Z,3.46
2017-12-31T01:23:49.920Z,3.43
2017-12-31T01:26:17.569Z,3.46
2017-12-31T01:28:45.021Z,3.47
2017-12-31T01:31:12.477Z,3.36
2017-12-31T01:33:40.309Z,3.38
2017-12-31T01:36:07.772Z,3.43
2017-12-31T01:38:35.252Z,3.28
2017-12-31T01:41:02.986Z,3.48
2017-12-31T01:43:30.441Z,3.51
2017-12-31T01:45:57.894Z,3.60
2017-12-31T01:48:25.686Z,3.73
2017-12-31T01:50:53.146Z,3.60
2017-12-31T01:53:20.615Z,3.76
2017-12-31T01:55:48.357Z,3.76
2017-12-31T01:58:15.815Z,3.79
2017-12-31T02:00:43.267Z,3.76
2017-12-31T02:03:11.048Z,3.92
2017-12-31T02:05:38.504Z,3.85
2017-12-31T02:08:05.956Z,3.82
2017-12-31T02:10:33.737Z,3.89
2017-12-31T02:13:01.198Z,3.81
2017-12-31T02:15:28.660Z,3.61
2017-12-31T02:17:56.417Z,3.66
2017-12-31T02:20:23.958Z,3.61
2017-12-31T02:22:51.414Z,3.82
2017-12-31T02:25:19.714Z,3.71
2017-12-31T02:27:47.192Z,3.87
2017-12-31T02:30:14.672Z,3.97
2017-12-31T02:32:42.404Z,3.85
2017-12-31T02:35:09.860Z,3.99
2017-12-31T02:37:37.322Z,4.01
2017-12-31T02:40:05.089Z,4.08
2017-12-31T02:42:32.560Z,4.12
2017-12-31T02:45:00.061Z,4.11
2017-12-31T02:47:27.781Z,4.03
2017-12-31T02:49:55.244Z,4.04
2017-12-31T02:52:22.712Z,4.09
2017-12-31T02:54:50.472Z,3.93
2017-12-31T02:57:17.928Z,3.90
2017-12-31T02:59:45.393Z,3.94
2017-12-31T03:02:13.459Z,4.00
2017-12-31T03:04:40.940Z,3.94
2017-12-31T03:07:08.389Z,3.91
2017-12-31T03:09:35.978Z,3.84
2017-12-31T03:12:03.451Z,3.86
2017-12-31T03:14:30.917Z,3.85
2017-12-31T03:16:58.836Z,3.95
2017-12-31T03:19:26.284Z,3.89
2017-12-31T03:21:53.744Z,3.76
2017-12-31T03:24:21.673Z,3.81
2017-12-31T03:26:49.673Z,3.89
2017-12-31T03:29:17.129Z,3.89
2017-12-31T03:31:44.828Z,3.85
2017-12-31T03:34:12.288Z,3.86
2017-12-31T03:36:39.741Z,3.87
2017-12-31T03:39:07.444Z,3.82
2017-12-31T03:41:34.908Z,3.88
2017-12-31T03:44:02.364Z,3.92
2017-12-31T03:46:30.503Z,3.90
2017-12-31T03:48:57.965Z,3.86
2017-12-31T03:51:25.414Z,3.85
2017-12-31T03:53:53.497Z,4.00
2017-12-31T03:56:20.953Z,3.99
2017-12-31T03:58:48.418Z,4.00
2017-12-31T04:01:16.183Z,3.97
2017-12-31T04:03:43.640Z,3.94
2017-12-31T04:06:11.094Z,3.92
2017-12-31T04:08:38.881Z,3.97
2017-12-31T04:11:06.349Z,3.97
2017-12-31T04:13:33.796Z,3.98
2017-12-31T04:16:01.873Z,3.95
2017-12-31T04:18:29.333Z,3.97
2017-12-31T04:20:56.794Z,3.86
2017-12-31T04:23:24.862Z,3.84
2017-12-31T04:25:52.328Z,3.71
2017-12-31T04:28:20.476Z,3.79
2017-12-31T04:30:48.160Z,3.81
2017-12-31T04:33:15.607Z,3.83
2017-12-31T04:35:43.066Z,3.81
2017-12-31T04:38:10.851Z,4.00
2017-12-31T04:40:38.329Z,3.95
2017-12-31T04:43:05.784Z,4.09
2017-12-31T04:45:33.848Z,4.14
2017-12-31T04:48:01.307Z,3.94
2017-12-31T04:50:28.768Z,3.84
2017-12-31T04:52:56.538Z,3.87
2017-12-31T04:55:23.982Z,3.75
2017-12-31T04:57:51.435Z,3.84
2017-12-31T05:00:19.152Z,3.78
2017-12-31T05:02:46.600Z,3.81
2017-12-31T05:05:14.069Z,3.81
2017-12-31T05:07:41.908Z,4.00
2017-12-31T05:10:09.377Z,4.04
2017-12-31T05:12:36.828Z,4.07
2017-12-31T05:15:04.616Z,4.15
2017-12-31T05:17:32.068Z,4.08
2017-12-31T05:19:59.520Z,4.06
2017-12-31T05:22:27.288Z,4.08
2017-12-31T05:24:54.755Z,4.18
2017-12-31T05:27:22.213Z,4.21
2017-12-31T05:29:51.501Z,4.30
2017-12-31T05:32:18.961Z,4.27
2017-12-31T05:34:46.421Z,4.32
2017-12-31T05:37:14.239Z,4.38
2017-12-31T05:39:41.696Z,4.44
2017-12-31T05:42:09.157Z,4.43
2017-12-31T05:44:36.884Z,4.41
2017-12-31T05:47:04.348Z,4.38
2017-12-31T05:49:31.800Z,4.43
2017-12-31T05:51:59.469Z,4.50
2017-12-31T05:54:26.925Z,4.49
2017-12-31T05:56:54.384Z,4.52
2017-12-31T05:59:22.256Z,4.51
2017-12-31T06:01:49.717Z,4.68
2017-12-31T06:04:17.168Z,4.77
2017-12-31T06:06:44.944Z,4.96
2017-12-31T06:09:12.404Z,5.07
2017-12-31T06:11:39.865Z,5.38
2017-12-31T06:14:07.629Z,5.45
2017-12-31T06:16:35.097Z,5.58
2017-12-31T06:19:02.549Z,5.75
2017-12-31T06:21:30.327Z,5.79
2017-12-31T06:23:57.785Z,5.92
2017-12-31T06:26:25.243Z,5.99
2017-12-31T06:28:52.998Z,6.07
2017-12-31T06:31:21.072Z,6.23
2017-12-31T06:33:48.534Z,6.43
2017-12-31T06:36:16.961Z,6.46
2017-12-31T06:38:44.420Z,6.59
2017-12-31T06:41:11.871Z,6.82
2017-12-31T06:43:39.612Z,7.15
2017-12-31T06:46:07.065Z,7.35
2017-12-31T06:48:34.532Z,7.49
2017-12-31T06:51:02.289Z,7.52
2017-12-31T06:53:29.734Z,7.70
2017-12-31T06:55:57.180Z,7.68
2017-12-31T06:58:25.289Z,7.86
2017-12-31T07:00:52.737Z,7.97
2017-12-31T07:03:20.175Z,8.11
2017-12-31T07:05:47.965Z,8.30
2017-12-31T07:08:15.417Z,8.37
2017-12-31T07:10:42.863Z,8.33
2017-12-31T07:13:10.649Z,8.40
2017-12-31T07:15:38.093Z,8.51
2017-12-31T07:18:05.533Z,8.61
2017-12-31T07:20:33.336Z,8.63
2017-12-31T07:23:00.786Z,8.63
2017-12-31T07:25:28.240Z,8.66
2017-12-31T07:27:56.024Z,8.69
2017-12-31T07:30:23.469Z,8.66
2017-12-31T07:32:51.324Z,8.62
2017-12-31T07:35:19.036Z,8.26
2017-12-31T07:37:46.487Z,7.88
2017-12-31T07:40:13.928Z,7.43
2017-12-31T07:42:41.589Z,7.67
2017-12-31T07:45:09.033Z,8.17
2017-12-31T07:47:36.486Z,8.56
2017-12-31T07:50:04.396Z,9.46
2017-12-31T07:52:31.836Z,9.53
2017-12-31T07:54:59.270Z,9.80
2017-12-31T07:57:26.972Z,9.89
2017-12-31T07:59:54.417Z,10.12
2017-12-31T08:02:21.876Z,10.41
2017-12-31T08:04:49.768Z,10.41
2017-12-31T08:07:17.217Z,10.46
2017-12-31T08:09:44.673Z,10.48
2017-12-31T08:12:12.757Z,10.60
2017-12-31T08:14:40.198Z,10.68
2017-12-31T08:17:07.646Z,10.59
2017-12-31T08:19:35.758Z,10.64
2017-12-31T08:22:03.205Z,10.80
2017-12-31T08:24:30.652Z,10.77
2017-12-31T08:26:58.392Z,10.81
2017-12-31T08:29:25.846Z,10.91
2017-12-31T08:31:53.305Z,10.87
2017-12-31T08:34:21.748Z,10.92
2017-12-31T08:36:49.200Z,10.90
2017-12-31T08:39:16.650Z,11.01
2017-12-31T08:41:44.442Z,10.97
2017-12-31T08:44:11.902Z,10.88
2017-12-31T08:46:39.356Z,10.75
2017-12-31T08:49:07.127Z,10.70
2017-12-31T08:51:34.576Z,10.50
2017-12-31T08:54:02.030Z,10.41
2017-12-31T08:56:29.801Z,10.52
2017-12-31T08:58:57.252Z,10.32
2017-12-31T09:01:24.697Z,10.44
2017-12-31T09:03:52.500Z,10.49
2017-12-31T09:06:19.948Z,10.50
2017-12-31T09:08:47.398Z,10.50
2017-12-31T09:11:15.184Z,10.40
2017-12-31T09:13:42.636Z,10.54
2017-12-31T09:16:10.081Z,10.57
2017-12-31T09:18:37.886Z,10.45
2017-12-31T09:21:05.334Z,10.46
2017-12-31T09:23:32.782Z,10.55
2017-12-31T09:26:00.560Z,10.68
2017-12-31T09:28:28.010Z,10.77
2017-12-31T09:30:55.461Z,10.83
2017-12-31T09:33:23.243Z,10.92
2017-12-31T09:35:51.698Z,11.12
2017-12-31T09:38:19.162Z,11.38
2017-12-31T09:40:47.102Z,11.36
2017-12-31T09:43:14.547Z,11.59
2017-12-31T09:45:41.992Z,11.61
2017-12-31T09:48:09.845Z,11.73
2017-12-31T09:50:37.292Z,11.67
2017-12-31T09:53:04.729Z,11.98
2017-12-31T09:55:32.573Z,11.88
2017-12-31T09:58:00.007Z,11.88
2017-12-31T10:00:27.449Z,11.97
2017-12-31T10:02:55.268Z,12.04
2017-12-31T10:05:22.715Z,12.01
2017-12-31T10:07:50.161Z,11.85
2017-12-31T10:10:17.901Z,12.03
2017-12-31T10:12:45.344Z,12.25
2017-12-31T10:15:12.792Z,12.12
2017-12-31T10:17:40.584Z,12.32
2017-12-31T10:20:08.032Z,12.28
2017-12-31T10:22:35.477Z,12.31
2017-12-31T10:25:03.595Z,12.33
2017-12-31T10:27:31.116Z,12.38
2017-12-31T10:29:58.574Z,12.49
2017-12-31T10:32:26.426Z,12.60
2017-12-31T10:34:53.885Z,12.71
2017-12-31T10:37:21.880Z,12.48
2017-12-31T10:39:49.587Z,12.55
2017-12-31T10:42:17.037Z,12.58
2017-12-31T10:44:44.488Z,12.56
2017-12-31T10:47:12.585Z,12.54
2017-12-31T10:49:40.055Z,12.37
2017-12-31T10:52:07.500Z,12.38
2017-12-31T10:54:35.266Z,12.49
2017-12-31T10:57:02.726Z,12.42
2017-12-31T10:59:30.172Z,12.35
2017-12-31T11:01:57.950Z,12.25
2017-12-31T11:04:25.401Z,12.11
2017-12-31T11:06:52.857Z,12.19
2017-12-31T11:09:20.640Z,12.51
2017-12-31T11:11:48.088Z,12.46
2017-12-31T11:14:15.720Z,12.64
2017-12-31T11:16:43.626Z,12.75
2017-12-31T11:19:11.078Z,12.73
2017-12-31T11:21:38.536Z,13.06
2017-12-31T11:24:06.634Z,13.06
2017-12-31T11:26:34.088Z,13.54
2017-12-31T11:29:01.533Z,13.52
2017-12-31T11:31:29.310Z,13.63
2017-12-31T11:33:56.816Z,13.80
2017-12-31T11:36:24.265Z,14.00
2017-12-31T11:38:52.409Z,14.03
2017-12-31T11:41:19.868Z,14.29
2017-12-31T11:43:47.309Z,14.50
2017-12-31T11:46:15.292Z,14.43
2017-12-31T11:48:42.736Z,14.98
2017-12-31T11:51:10.201Z,15.03
2017-12-31T11:53:37.968Z,14.98
2017-12-31T11:56:05.419Z,15.09
2017-12-31T11:58:32.868Z,15.23
2017-12-31T12:01:00.665Z,15.40
2017-12-31T12:03:28.109Z,15.41
2017-12-31T12:05:55.553Z,15.41
2017-12-31T12:08:23.668Z,15.56
2017-12-31T12:10:51.115Z,15.75
2017-12-31T12:13:18.548Z,15.79
2017-12-31T12:15:46.344Z,16.41
2017-12-31T12:18:13.797Z,16.45
2017-12-31T12:27:24.945Z,16.26
2017-12-31T12:29:52.409Z,16.36
2017-12-31T12:32:19.860Z,16.52
2017-12-31T12:34:47.641Z,16.71
2017-12-31T12:37:15.092Z,16.66
2017-12-31T12:39:43.251Z,16.14
2017-12-31T12:42:10.929Z,16.46
2017-12-31T12:44:38.378Z,16.87
2017-12-31T12:47:05.824Z,16.56
2017-12-31T12:49:33.612Z,16.48
2017-12-31T12:52:01.066Z,16.58
2017-12-31T12:54:28.523Z,16.67
2017-12-31T12:56:56.301Z,16.44
2017-12-31T12:59:23.751Z,16.56
2017-12-31T13:01:51.201Z,17.10
2017-12-31T13:04:19.299Z,16.66
2017-12-31T13:06:46.763Z,16.85
2017-12-31T13:09:14.204Z,17.14
2017-12-31T13:11:41.977Z,17.45
2017-12-31T13:14:09.428Z,17.49
2017-12-31T13:16:36.875Z,17.43
2017-12-31T13:19:04.674Z,17.37
2017-12-31T13:21:32.129Z,17.38
2017-12-31T13:23:59.585Z,16.71
2017-12-31T13:26:28.546Z,17.38
2017-12-31T13:28:55.995Z,17.43
2017-12-31T13:31:23.449Z,17.80
2017-12-31T13:33:51.282Z,17.89
2017-12-31T13:36:18.735Z,16.71
2017-12-31T13:38:46.206Z,16.25
2017-12-31T13:41:14.579Z,15.37
2017-12-31T13:43:42.023Z,14.98
2017-12-31T13:46:09.477Z,14.69
2017-12-31T13:48:37.577Z,14.54
2017-12-31T13:51:05.035Z,14.95
2017-12-31T13:53:32.497Z,14.63
2017-12-31T13:56:00.266Z,14.70
2017-12-31T13:58:27.730Z,14.88
2017-12-31T14:00:55.172Z,14.70
2017-12-31T14:03:22.943Z,14.99
2017-12-31T14:05:50.400Z,15.68
2017-12-31T14:08:17.837Z,15.90
2017-12-31T14:10:45.637Z,15.89
2017-12-31T14:13:13.080Z,16.01
2017-12-31T14:15:40.523Z,15.70
2017-12-31T14:18:08.317Z,15.97
2017-12-31T14:20:35.760Z,15.75
2017-12-31T14:23:03.202Z,16.01
2017-12-31T14:25:31.016Z,15.64
2017-12-31T14:27:58.472Z,15.65
2017-12-31T14:30:25.945Z,15.64
2017-12-31T14:32:53.693Z,15.87
2017-12-31T14:35:21.141Z,15.62
2017-12-31T14:37:48.604Z,15.43
2017-12-31T14:40:16.385Z,15.22
2017-12-31T14:42:44.220Z,15.19
2017-12-31T14:45:11.673Z,15.02
2017-12-31T14:47:39.380Z,14.83
2017-12-31T14:50:06.830Z,14.75
2017-12-31T14:52:34.278Z,14.38
2017-12-31T14:55:02.062Z,14.12
2017-12-31T14:57:29.517Z,14.04
2017-12-31T14:59:56.971Z,13.71
2017-12-31T15:02:24.741Z,13.38
2017-12-31T15:04:52.197Z,13.26
2017-12-31T15:07:19.645Z,13.09
2017-12-31T15:09:47.436Z,12.95
2017-12-31T15:12:14.877Z,12.85
2017-12-31T15:14:42.332Z,12.85
2017-12-31T15:17:10.133Z,12.64
2017-12-31T15:19:37.586Z,12.65
2017-12-31T15:22:05.038Z,12.54
2017-12-31T15:24:32.769Z,12.42
2017-12-31T15:27:00.215Z,12.41
2017-12-31T15:29:27.679Z,12.21
2017-12-31T15:31:55.492Z,12.10
2017-12-31T15:34:22.976Z,12.12
2017-12-31T15:36:50.417Z,11.99
2017-12-31T15:39:18.182Z,11.93
2017-12-31T15:41:45.628Z,11.75
2017-12-31T15:44:15.316Z,11.64
2017-12-31T15:46:43.629Z,11.53
2017-12-31T15:49:11.068Z,11.34
2017-12-31T15:51:38.516Z,11.41
2017-12-31T15:54:06.626Z,11.46
2017-12-31T15:56:34.076Z,11.25
2017-12-31T15:59:01.598Z,11.20
2017-12-31T16:01:29.308Z,11.10
2017-12-31T16:03:56.754Z,11.11
2017-12-31T16:06:24.193Z,11.01
2017-12-31T16:08:52.030Z,10.63
2017-12-31T16:11:19.488Z,10.50
2017-12-31T16:13:46.936Z,10.54
2017-12-31T16:16:14.689Z,10.42
2017-12-31T16:18:42.142Z,10.43
2017-12-31T16:21:09.596Z,10.24
2017-12-31T16:23:37.390Z,10.32
2017-12-31T16:26:04.850Z,10.07
2017-12-31T16:28:32.309Z,10.16
2017-12-31T16:31:00.381Z,10.02
2017-12-31T16:33:27.841Z,9.95
2017-12-31T16:35:55.289Z,9.85
2017-12-31T16:38:23.057Z,9.82
2017-12-31T16:40:50.499Z,9.82
2017-12-31T16:43:17.944Z,9.67
2017-12-31T16:45:46.068Z,9.44
2017-12-31T16:48:13.536Z,9.37
2017-12-31T16:50:40.990Z,9.28
2017-12-31T16:53:08.716Z,9.12
2017-12-31T16:55:36.167Z,8.84
2017-12-31T16:58:03.613Z,8.96
2017-12-31T17:00:31.432Z,8.79
2017-12-31T17:02:58.894Z,8.59
2017-12-31T17:05:26.345Z,8.54
2017-12-31T17:07:54.141Z,8.56
2017-12-31T17:10:21.603Z,8.44
2017-12-31T17:12:49.056Z,8.39
2017-12-31T17:15:16.809Z,8.34
2017-12-31T17:17:44.261Z,8.21
2017-12-31T17:20:11.711Z,8.16
2017-12-31T17:22:39.489Z,7.90
2017-12-31T17:25:06.946Z,7.71
2017-12-31T17:27:34.407Z,7.58
2017-12-31T17:30:02.180Z,7.63
2017-12-31T17:32:29.641Z,7.36
2017-12-31T17:34:57.102Z,7.54
2017-12-31T17:37:24.872Z,7.23
2017-12-31T17:39:52.666Z,7.54
2017-12-31T17:42:20.133Z,7.52
2017-12-31T17:44:47.849Z,7.62
2017-12-31T17:47:16.645Z,7.39
2017-12-31T17:49:44.096Z,7.08
2017-12-31T17:52:12.077Z,7.01
2017-12-31T17:54:39.534Z,7.04
2017-12-31T17:57:06.999Z,6.99
2017-12-31T17:59:34.748Z,6.93
2017-12-31T18:02:02.209Z,6.90
2017-12-31T18:04:29.667Z,6.80
2017-12-31T18:06:57.460Z,7.08
2017-12-31T18:09:24.928Z,7.08
2017-12-31T18:11:52.381Z,7.01
2017-12-31T18:14:20.160Z,7.06
2017-12-31T18:16:47.621Z,6.96
2017-12-31T18:19:15.086Z,6.81
2017-12-31T18:21:42.804Z,6.98
2017-12-31T18:24:10.284Z,6.80
2017-12-31T18:26:37.745Z,6.72
2017-12-31T18:29:05.542Z,6.78
2017-12-31T18:31:33.002Z,6.88
2017-12-31T18:34:00.449Z,6.79
2017-12-31T18:36:28.199Z,6.94
2017-12-31T18:38:55.661Z,6.91
2017-12-31T18:41:23.116Z,6.87
2017-12-31T18:43:51.204Z,6.89
2017-12-31T18:46:18.672Z,6.87
2017-12-31T18:48:46.476Z,6.83
2017-12-31T18:51:14.211Z,6.71
2017-12-31T18:53:41.657Z,6.78
2017-12-31T18:56:09.125Z,6.75
2017-12-31T18:58:36.708Z,6.68
2017-12-31T19:01:04.166Z,6.90
2017-12-31T19:03:31.617Z,6.85
2017-12-31T19:05:59.562Z,6.80
2017-12-31T19:08:27.025Z,6.83
2017-12-31T19:10:54.489Z,6.73
2017-12-31T19:13:22.258Z,6.77
2017-12-31T19:15:49.706Z,6.74
2017-12-31T19:18:17.152Z,6.69
2017-12-31T19:20:45.245Z,6.69
2017-12-31T19:23:12.714Z,6.61
2017-12-31T19:25:40.175Z,6.55
2017-12-31T19:28:07.809Z,6.45
2017-12-31T19:30:35.260Z,6.44
2017-12-31T19:33:02.719Z,6.47
2017-12-31T19:35:30.657Z,6.33
2017-12-31T19:37:58.104Z,6.38
2017-12-31T19:40:25.583Z,6.35
2017-12-31T19:42:53.301Z,6.41
2017-12-31T19:45:20.753Z,6.48
2017-12-31T19:47:48.206Z,6.51
2017-12-31T19:50:18.308Z,6.47
2017-12-31T19:52:45.763Z,6.32
2017-12-31T19:55:13.216Z,5.99
2017-12-31T19:57:40.873Z,5.76
2017-12-31T20:00:08.335Z,5.68
2017-12-31T20:02:35.785Z,5.84
2017-12-31T20:05:04.131Z,5.95
2017-12-31T20:07:31.603Z,5.84
2017-12-31T20:09:59.069Z,6.08
2017-12-31T20:12:26.816Z,6.03
2017-12-31T20:14:54.277Z,5.86
2017-12-31T20:17:21.747Z,5.75
2017-12-31T20:19:49.808Z,5.74
2017-12-31T20:22:17.272Z,5.73
2017-12-31T20:24:44.730Z,5.66
2017-12-31T20:27:12.506Z,5.61
2017-12-31T20:29:39.964Z,5.62
2017-12-31T20:32:07.424Z,5.62
2017-12-31T20:34:35.199Z,5.75
2017-12-31T20:37:02.657Z,5.81
2017-12-31T20:39:30.117Z,5.82
2017-12-31T20:41:57.793Z,5.75
2017-12-31T20:44:25.257Z,5.64
2017-12-31T20:46:52.723Z,5.55
2017-12-31T20:49:20.568Z,5.45
2017-12-31T20:51:49.039Z,5.46
2017-12-31T20:54:16.510Z,5.42
2017-12-31T20:56:44.178Z,5.36
2017-12-31T20:59:11.659Z,5.38
2017-12-31T21:01:39.116Z,5.42
2017-12-31T21:04:06.816Z,5.67
2017-12-31T21:06:34.278Z,5.74
2017-12-31T21:09:01.734Z,5.76
2017-12-31T21:11:29.486Z,5.59
2017-12-31T21:13:56.969Z,5.64
2017-12-31T21:16:25.113Z,5.54
2017-12-31T21:18:52.819Z,5.44
2017-12-31T21:21:20.297Z,5.40
2017-12-31T21:23:47.756Z,5.23
2017-12-31T21:26:15.850Z,5.01
2017-12-31T21:28:43.317Z,4.93
2017-12-31T21:31:10.781Z,4.86
2017-12-31T21:33:38.529Z,4.61
2017-12-31T21:36:06.009Z,4.73
2017-12-31T21:38:33.473Z,4.80
2017-12-31T21:41:01.531Z,4.69
2017-12-31T21:43:28.999Z,4.76
2017-12-31T21:45:56.464Z,4.75
2017-12-31T21:48:24.200Z,4.67
2017-12-31T21:50:51.675Z,4.52
2017-12-31T21:53:20.144Z,4.43
2017-12-31T21:55:48.128Z,4.43
2017-12-31T21:58:15.588Z,4.26
2017-12-31T22:00:43.047Z,4.42
2017-12-31T22:03:10.812Z,4.57
2017-12-31T22:05:38.271Z,4.56
2017-12-31T22:08:08.356Z,4.60
2017-12-31T22:10:36.281Z,4.60
2017-12-31T22:13:03.744Z,4.61
2017-12-31T22:15:31.209Z,4.47
2017-12-31T22:17:58.961Z,4.42
2017-12-31T22:20:26.426Z,4.32
2017-12-31T22:22:53.889Z,4.27
2017-12-31T22:25:21.651Z,3.99
2017-12-31T22:27:49.117Z,4.27
2017-12-31T22:30:16.585Z,4.19
2017-12-31T22:32:44.663Z,4.11
2017-12-31T22:35:12.134Z,3.94
2017-12-31T22:37:39.657Z,3.91
2017-12-31T22:40:07.316Z,3.86
2017-12-31T22:42:34.777Z,4.21
2017-12-31T22:45:02.244Z,4.39
2017-12-31T22:47:30.316Z,4.43
2017-12-31T22:49:57.820Z,4.23
2017-12-31T22:52:25.260Z,4.21
2017-12-31T22:54:53.896Z,4.22
2017-12-31T22:57:21.380Z,4.13
2017-12-31T22:59:48.845Z,3.57
2017-12-31T23:02:16.604Z,3.65
2017-12-31T23:04:44.073Z,3.67
2017-12-31T23:07:11.628Z,3.72
2017-12-31T23:09:39.333Z,3.76
2017-12-31T23:12:06.801Z,3.52
2017-12-31T23:14:34.264Z,3.59
2017-12-31T23:17:02.013Z,3.59
2017-12-31T23:19:29.478Z,3.69
2017-12-31T23:21:56.999Z,3.68
2017-12-31T23:24:24.973Z,3.71
2017-12-31T23:26:52.442Z,3.63
2017-12-31T23:29:19.902Z,3.61
2017-12-31T23:31:48.121Z,3.80
2017-12-31T23:34:15.585Z,3.84
2017-12-31T23:36:43.049Z,3.90
2017-12-31T23:39:10.972Z,3.80
2017-12-31T23:41:38.441Z,3.68
2017-12-31T23:44:05.912Z,3.70
2017-12-31T23:46:33.957Z,3.51
2017-12-31T23:49:01.424Z,3.33
2017-12-31T23:51:28.892Z,3.20
2017-12-31T23:53:56.657Z,3.09
2017-12-31T23:56:25.120Z,3.02
2017-12-31T23:58:52.590Z,3.04
